Time;durP1;ratioP1;P1;durP2;ratioP2;P2;SDS_P1;SDS_P2;PMS_P1;PMS_P2;Temp;Humidity;BMP_temperature;BMP_pressure;BME280_temperature;BME280_humidity;BME280_pressure;Samples;Min_cycle;Max_cycle;Signal;HPM_P1;HPM_P2
2023/08/24 00:00:57;;;;;;;15.82;6.53;;;20.80;95.70;;;;;;4938704;29;20429;-87
2023/08/24 00:03:25;;;;;;;13.57;7.15;;;20.70;95.90;;;;;;4934103;29;20027;-87
2023/08/24 00:05:51;;;;;;;13.13;8.70;;;20.60;96.10;;;;;;4934540;29;20791;-87
2023/08/24 00:08:17;;;;;;;14.40;8.25;;;20.60;96.30;;;;;;4933806;29;20023;-86
2023/08/24 00:10:46;;;;;;;16.23;8.02;;;20.60;96.50;;;;;;4932970;29;20494;-86
2023/08/24 00:13:12;;;;;;;16.55;8.27;;;20.50;96.50;;;;;;4922515;29;20051;-86
2023/08/24 00:15:39;;;;;;;15.15;7.45;;;20.40;96.80;;;;;;4935232;29;20107;-87
2023/08/24 00:18:07;;;;;;;13.70;8.13;;;20.40;96.90;;;;;;4938620;29;20035;-87
2023/08/24 00:20:33;;;;;;;18.33;8.57;;;20.40;96.90;;;;;;4934177;29;20023;-86
2023/08/24 00:22:59;;;;;;;16.23;8.43;;;20.40;96.90;;;;;;4921525;29;20023;-86
2023/08/24 00:25:28;;;;;;;21.02;8.93;;;20.40;96.90;;;;;;4939297;29;20034;-86
2023/08/24 00:27:54;;;;;;;16.95;8.40;;;20.40;97.00;;;;;;4933389;29;20035;-87
2023/08/24 00:30:20;;;;;;;16.65;8.50;;;20.30;97.20;;;;;;4939028;29;20035;-87
2023/08/24 00:32:46;;;;;;;17.83;8.88;;;20.30;97.30;;;;;;4955638;29;20128;-86
2023/08/24 00:35:11;;;;;;;17.10;9.50;;;20.30;97.40;;;;;;4957232;28;20034;-86
2023/08/24 00:37:38;;;;;;;17.30;9.93;;;20.40;97.20;;;;;;4950584;29;20027;-87
2023/08/24 00:40:09;;;;;;;15.05;9.32;;;20.30;97.40;;;;;;4919584;29;20205;-87
2023/08/24 00:42:43;;;;;;;15.00;8.85;;;20.30;97.50;;;;;;4939329;29;20043;-88
2023/08/24 00:45:12;;;;;;;16.83;9.25;;;20.30;97.50;;;;;;4939711;29;20079;-86
2023/08/24 00:47:44;;;;;;;14.38;9.45;;;20.30;97.40;;;;;;4934237;29;20106;-86
2023/08/24 00:50:11;;;;;;;17.48;9.57;;;20.30;97.40;;;;;;4937004;29;20043;-87
2023/08/24 00:52:40;;;;;;;18.15;9.77;;;20.40;97.10;;;;;;4934795;29;20468;-86
2023/08/24 00:55:07;;;;;;;15.00;8.90;;;20.40;97.10;;;;;;4933361;29;20017;-85
2023/08/24 00:57:33;;;;;;;18.65;9.23;;;20.40;97.40;;;;;;4932039;29;20457;-86
2023/08/24 01:00:11;;;;;;;15.15;9.48;;;20.30;97.50;;;;;;4938377;29;20031;-86
2023/08/24 01:02:40;;;;;;;17.38;8.73;;;20.30;97.70;;;;;;4931195;29;20028;-86
2023/08/24 01:05:06;;;;;;;14.38;9.40;;;20.30;97.40;;;;;;4931400;29;20106;-86
2023/08/24 01:07:34;;;;;;;16.25;8.70;;;20.30;97.70;;;;;;4936862;29;20031;-85
2023/08/24 01:10:00;;;;;;;16.65;9.30;;;20.20;97.80;;;;;;4933994;29;20071;-85
2023/08/24 01:12:38;;;;;;;19.00;10.27;;;20.20;97.80;;;;;;4937677;29;20063;-85
2023/08/24 01:15:09;;;;;;;19.65;8.77;;;20.20;98.20;;;;;;4939204;29;20078;-86
2023/08/24 01:17:36;;;;;;;16.27;9.23;;;20.20;97.60;;;;;;4939150;29;20024;-85
2023/08/24 01:20:05;;;;;;;15.80;9.63;;;20.20;97.60;;;;;;4937189;29;20023;-86
2023/08/24 01:22:55;;;;;;;19.77;10.52;;;20.20;97.70;;;;;;4935124;29;20038;-85
2023/08/24 01:25:59;;;;;;;17.40;9.60;;;20.20;97.70;;;;;;4939210;29;20023;-84
2023/08/24 01:28:27;;;;;;;15.50;9.15;;;20.20;98.00;;;;;;4929011;29;20036;-85
2023/08/24 01:30:55;;;;;;;17.35;9.35;;;20.20;98.00;;;;;;4939991;29;20050;-85
2023/08/24 01:33:21;;;;;;;15.32;9.48;;;20.10;98.10;;;;;;4930889;29;20016;-86
2023/08/24 01:35:47;;;;;;;17.33;9.10;;;20.10;98.10;;;;;;4931097;29;20027;-85
2023/08/24 01:38:14;;;;;;;20.10;9.00;;;20.00;98.30;;;;;;4933786;29;20030;-85
2023/08/24 01:41:14;;;;;;;14.63;9.48;;;20.00;98.40;;;;;;4938520;29;20042;-85
2023/08/24 01:43:43;;;;;;;20.17;9.27;;;20.00;98.30;;;;;;4934250;29;20047;-85
2023/08/24 01:46:12;;;;;;;17.65;9.30;;;19.90;98.40;;;;;;4934238;29;20023;-86
2023/08/24 01:48:39;;;;;;;15.38;10.20;;;19.90;98.50;;;;;;4940441;29;20126;-85
2023/08/24 01:51:06;;;;;;;23.95;9.88;;;19.90;98.60;;;;;;4939061;29;20590;-85
2023/08/24 01:53:37;;;;;;;12.15;9.70;;;19.90;98.70;;;;;;4941772;28;20031;-85
2023/08/24 01:56:13;;;;;;;15.20;10.00;;;19.80;98.80;;;;;;4931148;29;20020;-85
2023/08/24 01:58:39;;;;;;;17.02;10.60;;;19.80;98.90;;;;;;4938178;29;20645;-85
2023/08/24 02:01:05;;;;;;;14.73;9.32;;;19.80;99.00;;;;;;4934677;29;20604;-85
2023/08/24 02:03:31;;;;;;;19.40;9.45;;;19.80;98.60;;;;;;4936449;29;20030;-85
2023/08/24 02:05:57;;;;;;;16.80;10.52;;;19.80;98.70;;;;;;4934915;29;20122;-85
2023/08/24 02:08:22;;;;;;;19.23;9.63;;;19.70;99.10;;;;;;4937442;29;20051;-85
2023/08/24 02:10:50;;;;;;;19.15;9.70;;;19.70;99.10;;;;;;4934966;29;20019;-85
2023/08/24 02:13:16;;;;;;;15.77;9.65;;;19.80;99.10;;;;;;4934554;29;20027;-85
2023/08/24 02:15:41;;;;;;;21.25;10.10;;;19.80;99.00;;;;;;4936337;29;20081;-85
2023/08/24 02:18:07;;;;;;;20.20;10.23;;;19.70;98.90;;;;;;4932760;29;20027;-85
2023/08/24 02:20:37;;;;;;;19.58;11.00;;;19.80;99.30;;;;;;4934175;29;20019;-85
2023/08/24 02:23:03;;;;;;;15.10;10.27;;;19.70;98.80;;;;;;4932765;29;20039;-85
2023/08/24 02:25:29;;;;;;;16.08;10.00;;;19.70;99.00;;;;;;4937343;29;20023;-85
2023/08/24 02:27:55;;;;;;;15.05;9.77;;;19.70;99.00;;;;;;4936225;29;20542;-85
2023/08/24 02:30:20;;;;;;;16.75;10.30;;;19.80;99.00;;;;;;4932076;29;20040;-85
2023/08/24 02:32:46;;;;;;;16.10;10.30;;;19.70;99.10;;;;;;4934045;29;20094;-85
2023/08/24 02:35:26;;;;;;;20.75;10.25;;;19.70;99.30;;;;;;4938752;29;20034;-85
2023/08/24 02:37:56;;;;;;;16.27;9.60;;;19.60;99.40;;;;;;4940194;29;20051;-85
2023/08/24 02:40:22;;;;;;;18.88;10.60;;;19.50;99.60;;;;;;4935462;29;20028;-85
2023/08/24 02:42:48;;;;;;;17.08;10.77;;;19.50;99.70;;;;;;4937970;29;20059;-85
2023/08/24 02:45:13;;;;;;;19.30;10.38;;;19.50;99.70;;;;;;4938275;29;20117;-86
2023/08/24 02:47:39;;;;;;;15.65;10.50;;;19.50;99.80;;;;;;4933061;29;20489;-85
2023/08/24 02:50:08;;;;;;;20.40;10.73;;;19.60;99.50;;;;;;4942554;29;20043;-84
2023/08/24 02:52:34;;;;;;;18.77;10.52;;;19.60;99.50;;;;;;4945063;29;20046;-85
2023/08/24 02:55:00;;;;;;;18.63;10.45;;;19.70;99.50;;;;;;4936376;29;20028;-85
2023/08/24 02:57:25;;;;;;;17.42;10.75;;;19.70;99.50;;;;;;4932252;29;20041;-85
2023/08/24 02:59:51;;;;;;;21.88;10.60;;;19.80;99.40;;;;;;4936028;29;20483;-85
2023/08/24 03:02:16;;;;;;;21.98;10.32;;;19.80;99.10;;;;;;4933252;29;20047;-85
2023/08/24 03:04:42;;;;;;;19.27;10.45;;;19.80;99.50;;;;;;4933671;29;20075;-85
2023/08/24 03:07:10;;;;;;;21.52;10.20;;;19.90;99.50;;;;;;4933561;29;20107;-84
2023/08/24 03:09:36;;;;;;;18.70;10.55;;;19.80;99.40;;;;;;4936988;29;20060;-85
2023/08/24 03:12:02;;;;;;;15.75;9.65;;;19.80;99.30;;;;;;4935092;29;20497;-84
2023/08/24 03:14:28;;;;;;;20.60;11.10;;;19.80;99.50;;;;;;4945547;28;20126;-85
2023/08/24 03:16:54;;;;;;;14.75;9.57;;;19.80;99.60;;;;;;4935577;29;20024;-85
2023/08/24 03:19:19;;;;;;;14.07;10.50;;;19.80;99.60;;;;;;4933463;29;20478;-85
2023/08/24 03:21:45;;;;;;;18.52;10.65;;;19.80;99.40;;;;;;4929127;29;20039;-85
2023/08/24 03:24:11;;;;;;;17.10;9.93;;;19.90;99.40;;;;;;4943063;29;20232;-85
2023/08/24 03:26:37;;;;;;;17.48;11.05;;;19.80;99.50;;;;;;4957532;29;20028;-84
2023/08/24 03:29:02;;;;;;;22.77;12.23;;;19.90;99.50;;;;;;4956099;28;20090;-85
2023/08/24 03:31:28;;;;;;;21.83;12.13;;;19.90;99.50;;;;;;4935723;29;20479;-85
2023/08/24 03:33:54;;;;;;;19.33;12.07;;;19.90;99.50;;;;;;4929603;29;20434;-84
2023/08/24 03:36:22;;;;;;;19.85;12.52;;;19.90;99.40;;;;;;4935933;29;20114;-85
2023/08/24 03:38:50;;;;;;;16.85;11.30;;;19.80;99.60;;;;;;4930246;29;20107;-85
2023/08/24 03:41:15;;;;;;;21.23;11.48;;;19.80;99.60;;;;;;4935645;29;20514;-85
2023/08/24 03:43:41;;;;;;;22.55;11.90;;;19.80;99.60;;;;;;4934576;29;20019;-84
2023/08/24 03:46:07;;;;;;;20.90;11.35;;;19.80;99.60;;;;;;4935102;29;20074;-84
2023/08/24 03:48:33;;;;;;;19.10;12.00;;;19.80;99.70;;;;;;4937168;29;20392;-84
2023/08/24 03:50:59;;;;;;;21.70;11.50;;;19.80;99.80;;;;;;4935150;29;20039;-84
2023/08/24 03:53:27;;;;;;;26.33;11.82;;;19.70;99.90;;;;;;4935141;29;20480;-83
2023/08/24 03:56:02;;;;;;;21.40;12.30;;;19.60;99.90;;;;;;4936704;29;20020;-84
2023/08/24 03:58:27;;;;;;;19.20;12.05;;;19.60;99.90;;;;;;4923629;28;20063;-84
2023/08/24 04:00:54;;;;;;;20.23;11.02;;;19.50;99.90;;;;;;4931569;29;20417;-84
2023/08/24 04:03:19;;;;;;;18.45;12.45;;;19.40;99.90;;;;;;4929969;29;20184;-84
2023/08/24 04:05:45;;;;;;;17.52;11.27;;;19.30;99.90;;;;;;4934517;29;20041;-85
2023/08/24 04:08:13;;;;;;;21.02;11.57;;;19.10;99.90;;;;;;4932499;29;20078;-84
2023/08/24 04:10:39;;;;;;;15.07;10.63;;;19.00;99.90;;;;;;4933835;29;20036;-85
2023/08/24 04:13:04;;;;;;;28.45;10.82;;;18.80;99.90;;;;;;4917494;29;20038;-84
2023/08/24 04:15:33;;;;;;;16.98;10.65;;;18.70;99.90;;;;;;4930549;29;20539;-85
2023/08/24 04:17:58;;;;;;;20.23;11.30;;;18.50;99.90;;;;;;4934510;28;20028;-87
2023/08/24 04:20:24;;;;;;;20.17;11.35;;;18.40;99.90;;;;;;4929134;29;20280;-86
2023/08/24 04:22:49;;;;;;;16.80;11.45;;;18.30;99.90;;;;;;4932626;29;20031;-86
2023/08/24 04:25:15;;;;;;;18.58;11.90;;;18.30;99.90;;;;;;4934060;29;20048;-86
2023/08/24 04:27:41;;;;;;;22.23;12.48;;;18.40;99.90;;;;;;4930366;29;20028;-85
2023/08/24 04:30:11;;;;;;;26.63;13.10;;;18.40;99.90;;;;;;4931807;29;20871;-84
2023/08/24 04:32:37;;;;;;;23.00;12.30;;;18.50;99.90;;;;;;4930301;29;20027;-86
2023/08/24 04:35:02;;;;;;;19.15;12.82;;;18.50;99.90;;;;;;4931244;29;20200;-85
2023/08/24 04:37:28;;;;;;;15.05;11.35;;;18.50;99.90;;;;;;4929366;29;20170;-86
2023/08/24 04:39:54;;;;;;;22.15;11.40;;;18.50;99.90;;;;;;4930837;29;20042;-86
2023/08/24 04:42:19;;;;;;;22.38;11.88;;;18.50;99.90;;;;;;4916404;29;20071;-85
2023/08/24 04:44:45;;;;;;;18.42;12.40;;;18.50;99.90;;;;;;4935840;29;20136;-85
2023/08/24 04:47:11;;;;;;;21.60;12.48;;;18.60;99.90;;;;;;4934491;29;20035;-84
2023/08/24 04:49:39;;;;;;;15.15;11.82;;;18.60;99.90;;;;;;4933056;29;20038;-86
2023/08/24 04:52:05;;;;;;;17.70;12.52;;;18.70;99.90;;;;;;4934088;29;20027;-85
2023/08/24 04:54:30;;;;;;;21.92;12.90;;;18.80;99.90;;;;;;4934796;29;20488;-84
2023/08/24 04:56:56;;;;;;;19.30;12.48;;;18.80;99.90;;;;;;4936805;29;20503;-84
2023/08/24 04:59:24;;;;;;;22.92;13.52;;;18.90;99.90;;;;;;4946090;29;20059;-84
2023/08/24 05:01:49;;;;;;;17.15;13.30;;;18.90;99.90;;;;;;4948270;29;20036;-85
2023/08/24 05:04:15;;;;;;;23.48;12.90;;;19.00;99.90;;;;;;4939183;28;20024;-84
2023/08/24 05:06:42;;;;;;;17.73;12.18;;;19.10;99.90;;;;;;4925550;29;20135;-85
2023/08/24 05:09:08;;;;;;;25.27;12.85;;;19.10;99.90;;;;;;4936253;29;20506;-84
2023/08/24 05:11:33;;;;;;;18.63;12.77;;;19.00;99.90;;;;;;4937907;28;21302;-85
2023/08/24 05:13:59;;;;;;;18.90;13.20;;;19.10;99.90;;;;;;4934908;29;20031;-85
2023/08/24 05:16:25;;;;;;;20.35;13.95;;;19.10;99.90;;;;;;4936584;29;20696;-85
2023/08/24 05:18:51;;;;;;;24.55;13.48;;;19.10;99.90;;;;;;4936211;29;20082;-84
2023/08/24 05:21:16;;;;;;;21.10;13.88;;;19.20;99.90;;;;;;4934205;29;20115;-84
2023/08/24 05:23:42;;;;;;;22.52;13.23;;;19.20;99.90;;;;;;4932004;29;20034;-83
2023/08/24 05:26:07;;;;;;;26.38;15.48;;;19.20;99.90;;;;;;4932819;29;20051;-85
2023/08/24 05:28:33;;;;;;;22.45;14.98;;;19.30;99.90;;;;;;4936595;29;20043;-84
2023/08/24 05:30:59;;;;;;;20.35;13.02;;;19.30;99.90;;;;;;4924931;29;20039;-84
2023/08/24 05:33:25;;;;;;;22.52;15.02;;;19.40;99.90;;;;;;4935276;29;20046;-85
2023/08/24 05:35:53;;;;;;;19.42;14.25;;;19.30;99.90;;;;;;4934297;28;20380;-85
2023/08/24 05:38:19;;;;;;;19.30;14.00;;;19.30;99.90;;;;;;4935362;29;20028;-84
2023/08/24 05:40:49;;;;;;;21.75;14.38;;;19.10;99.90;;;;;;4936484;29;20530;-85
2023/08/24 05:43:14;;;;;;;17.98;13.45;;;19.10;99.90;;;;;;4934039;29;20031;-85
2023/08/24 05:45:40;;;;;;;19.02;14.88;;;19.10;99.90;;;;;;4935015;29;20086;-85
2023/08/24 05:48:07;;;;;;;23.10;14.57;;;19.10;99.90;;;;;;4935785;29;20111;-85
2023/08/24 05:50:37;;;;;;;22.38;13.95;;;19.20;99.90;;;;;;4937938;29;20063;-84
2023/08/24 05:53:03;;;;;;;22.80;15.48;;;19.30;99.90;;;;;;4934434;28;20789;-85
2023/08/24 05:55:31;;;;;;;24.75;15.40;;;19.30;99.90;;;;;;4937538;29;20365;-85
2023/08/24 05:57:57;;;;;;;26.50;15.70;;;19.40;99.90;;;;;;4938202;29;20031;-86
2023/08/24 06:00:24;;;;;;;22.17;15.55;;;19.50;99.90;;;;;;4936455;29;20030;-84
2023/08/24 06:02:50;;;;;;;25.05;16.42;;;19.50;99.90;;;;;;4930757;29;20617;-85
2023/08/24 06:05:17;;;;;;;21.73;15.95;;;19.60;99.90;;;;;;4937073;29;20023;-85
2023/08/24 06:07:45;;;;;;;21.48;15.65;;;19.60;99.90;;;;;;4934635;29;20035;-85
2023/08/24 06:10:11;;;;;;;23.50;15.45;;;19.60;99.90;;;;;;4936501;29;20963;-85
2023/08/24 06:12:37;;;;;;;21.40;15.48;;;19.70;99.90;;;;;;4933192;29;20019;-84
2023/08/24 06:15:04;;;;;;;23.83;15.85;;;19.70;99.90;;;;;;4935972;29;20613;-85
2023/08/24 06:17:35;;;;;;;20.67;15.15;;;19.70;99.90;;;;;;4955159;29;20023;-86
2023/08/24 06:20:03;;;;;;;21.58;14.75;;;19.70;99.90;;;;;;4947392;29;20112;-85
2023/08/24 06:22:31;;;;;;;21.88;15.35;;;19.70;99.90;;;;;;4929653;29;20507;-85
2023/08/24 06:24:59;;;;;;;22.38;15.27;;;19.80;99.90;;;;;;4929929;29;20274;-85
2023/08/24 06:27:25;;;;;;;23.67;15.27;;;19.90;99.90;;;;;;4928607;29;20042;-85
2023/08/24 06:29:53;;;;;;;25.25;15.23;;;19.90;99.90;;;;;;4936803;29;20043;-85
2023/08/24 06:32:19;;;;;;;24.48;15.98;;;20.00;99.90;;;;;;4934344;29;20068;-86
2023/08/24 06:34:44;;;;;;;28.95;16.20;;;20.10;99.90;;;;;;4934610;29;20039;-85
2023/08/24 06:37:10;;;;;;;29.20;15.93;;;20.10;99.90;;;;;;4932404;29;20032;-85
2023/08/24 06:39:36;;;;;;;21.23;15.43;;;20.20;99.90;;;;;;4933985;29;20035;-85
2023/08/24 06:42:02;;;;;;;22.73;15.80;;;20.30;99.90;;;;;;4934777;29;20110;-85
2023/08/24 06:44:30;;;;;;;25.90;16.08;;;20.30;99.90;;;;;;4935706;29;20436;-84
2023/08/24 06:46:56;;;;;;;18.48;14.68;;;20.30;99.90;;;;;;4931940;29;20031;-85
2023/08/24 06:49:22;;;;;;;26.02;16.35;;;20.40;99.90;;;;;;4934731;29;20032;-84
2023/08/24 06:51:47;;;;;;;23.30;15.27;;;20.50;99.90;;;;;;4936194;29;20030;-85
2023/08/24 06:54:14;;;;;;;21.48;14.25;;;20.60;99.90;;;;;;4934834;29;20028;-85
2023/08/24 06:56:40;;;;;;;23.05;14.00;;;20.60;99.90;;;;;;4927108;29;20043;-84
2023/08/24 06:59:05;;;;;;;20.42;14.15;;;20.80;99.90;;;;;;4929115;29;20752;-84
2023/08/24 07:01:33;;;;;;;19.65;13.73;;;20.90;99.90;;;;;;4936221;29;20633;-84
2023/08/24 07:03:59;;;;;;;21.85;14.00;;;20.90;99.90;;;;;;4946730;28;20031;-84
2023/08/24 07:06:24;;;;;;;17.60;13.82;;;21.00;99.90;;;;;;4944014;28;20046;-85
2023/08/24 07:08:50;;;;;;;22.33;13.65;;;21.00;99.90;;;;;;4936129;29;20042;-85
2023/08/24 07:11:20;;;;;;;21.88;13.43;;;21.10;99.30;;;;;;4931629;29;20022;-85
2023/08/24 07:13:46;;;;;;;25.25;13.73;;;21.20;99.20;;;;;;4928179;29;20399;-86
2023/08/24 07:16:11;;;;;;;18.58;14.13;;;21.30;99.30;;;;;;4949723;28;20024;-84
2023/08/24 07:18:39;;;;;;;18.23;13.25;;;21.40;99.10;;;;;;4932507;29;20024;-85
2023/08/24 07:21:07;;;;;;;20.38;14.32;;;21.40;98.80;;;;;;4932614;29;20083;-85
2023/08/24 07:23:35;;;;;;;18.17;13.02;;;21.50;98.80;;;;;;4928943;29;20396;-85
2023/08/24 07:26:01;;;;;;;22.13;14.23;;;21.50;98.90;;;;;;4934638;29;20011;-84
2023/08/24 07:28:29;;;;;;;16.77;12.55;;;21.60;98.80;;;;;;4937310;29;20474;-84
2023/08/24 07:30:55;;;;;;;24.15;14.95;;;21.70;98.60;;;;;;4930292;29;20058;-82
2023/08/24 07:33:21;;;;;;;19.88;13.30;;;21.80;98.60;;;;;;4933544;29;20027;-82
2023/08/24 07:35:47;;;;;;;33.13;17.38;;;21.90;98.50;;;;;;4926729;29;20028;-82
2023/08/24 07:38:13;;;;;;;18.35;12.48;;;22.10;98.20;;;;;;4932597;29;20027;-81
2023/08/24 07:40:41;;;;;;;16.70;10.82;;;22.10;97.60;;;;;;4931699;29;20110;-84
2023/08/24 07:43:07;;;;;;;16.02;11.88;;;22.20;97.10;;;;;;4933318;29;20563;-84
2023/08/24 07:45:33;;;;;;;17.23;11.00;;;22.30;97.50;;;;;;4931022;29;20066;-83
2023/08/24 07:47:59;;;;;;;20.80;11.20;;;22.50;96.50;;;;;;4938383;29;20104;-82
2023/08/24 07:50:24;;;;;;;17.38;11.52;;;22.50;96.00;;;;;;4934114;29;20237;-85
2023/08/24 07:52:50;;;;;;;15.40;10.85;;;22.70;96.00;;;;;;4931385;29;20051;-85
2023/08/24 07:55:16;;;;;;;13.77;9.85;;;22.80;95.60;;;;;;4935839;29;20022;-86
2023/08/24 07:57:41;;;;;;;15.90;9.40;;;22.90;94.90;;;;;;4931349;29;20051;-85
2023/08/24 08:00:09;;;;;;;20.30;9.18;;;23.10;95.00;;;;;;4933217;29;20464;-86
2023/08/24 08:02:37;;;;;;;15.40;9.27;;;23.20;94.70;;;;;;4944080;29;20519;-85
2023/08/24 08:05:03;;;;;;;19.05;10.07;;;23.30;93.90;;;;;;4930880;29;20019;-85
2023/08/24 08:07:29;;;;;;;13.13;8.80;;;23.40;93.80;;;;;;4933562;29;20071;-82
2023/08/24 08:09:56;;;;;;;147.80;62.58;;;23.50;94.40;;;;;;4934666;29;20375;-82
2023/08/24 08:12:22;;;;;;;20.17;10.25;;;23.80;93.80;;;;;;4929279;29;20170;-81
2023/08/24 08:14:47;;;;;;;17.05;8.10;;;24.10;93.10;;;;;;4932694;29;20548;-85
2023/08/24 08:17:13;;;;;;;14.52;7.47;;;24.30;92.60;;;;;;4930475;28;20123;-85
2023/08/24 08:19:43;;;;;;;13.75;7.70;;;24.50;92.30;;;;;;4932746;29;20449;-85
2023/08/24 08:22:09;;;;;;;11.82;7.22;;;24.50;91.50;;;;;;4934089;29;20020;-85
2023/08/24 08:24:34;;;;;;;12.27;8.05;;;24.60;91.20;;;;;;4933311;29;20031;-85
2023/08/24 08:27:00;;;;;;;12.23;7.35;;;24.70;91.00;;;;;;4933625;29;20483;-85
2023/08/24 08:29:26;;;;;;;17.13;7.65;;;24.80;90.60;;;;;;4936492;28;20040;-84
2023/08/24 08:31:51;;;;;;;17.20;7.03;;;24.90;90.00;;;;;;4937447;29;20027;-86
2023/08/24 08:34:17;;;;;;;12.63;6.68;;;25.00;90.40;;;;;;4932180;29;20040;-86
2023/08/24 08:36:42;;;;;;;14.90;8.05;;;25.20;90.60;;;;;;4932156;29;20042;-88
2023/08/24 08:39:08;;;;;;;41.08;20.65;;;25.40;89.50;;;;;;4927566;29;20544;-86
2023/08/24 08:41:44;;;;;;;152.45;65.82;;;25.50;89.50;;;;;;4945360;28;20126;-87
2023/08/24 08:44:13;;;;;;;13.75;7.65;;;25.70;89.90;;;;;;4921432;29;20118;-86
2023/08/24 08:46:40;;;;;;;11.00;7.07;;;25.90;87.70;;;;;;4928212;29;20035;-86
2023/08/24 08:49:08;;;;;;;12.68;6.95;;;26.00;86.60;;;;;;4944226;28;20027;-85
2023/08/24 08:51:36;;;;;;;11.43;6.45;;;26.10;87.60;;;;;;4928494;29;20035;-85
2023/08/24 08:54:02;;;;;;;16.42;6.85;;;26.20;88.50;;;;;;4929413;29;20023;-85
2023/08/24 08:56:29;;;;;;;9.55;6.72;;;26.30;86.90;;;;;;4930926;29;20024;-85
2023/08/24 08:58:56;;;;;;;9.90;6.10;;;26.50;84.00;;;;;;4942104;28;20030;-85
2023/08/24 09:01:24;;;;;;;13.55;7.03;;;26.60;83.80;;;;;;4931207;29;20050;-78
2023/08/24 09:03:53;;;;;;;10.38;5.97;;;26.80;86.70;;;;;;4916062;29;20031;-83
2023/08/24 09:06:22;;;;;;;13.02;5.63;;;27.10;86.70;;;;;;4925799;29;20026;-84
2023/08/24 09:08:49;;;;;;;11.02;6.45;;;27.30;83.70;;;;;;4930817;29;20027;-83
2023/08/24 09:11:17;;;;;;;8.63;5.70;;;27.50;81.50;;;;;;4928384;29;20035;-83
2023/08/24 09:13:45;;;;;;;12.13;5.78;;;27.60;81.10;;;;;;4942853;29;20064;-82
2023/08/24 09:16:15;;;;;;;38.15;21.73;;;27.70;81.50;;;;;;4936472;29;20389;-84
2023/08/24 09:18:49;;;;;;;60.00;29.05;;;27.70;80.50;;;;;;4937071;29;20064;-84
2023/08/24 09:21:17;;;;;;;7.25;5.72;;;27.80;80.10;;;;;;4943029;28;20387;-85
2023/08/24 09:23:55;;;;;;;10.77;5.63;;;27.70;80.30;;;;;;4926523;29;20063;-85
2023/08/24 09:26:31;;;;;;;9.65;6.18;;;27.80;81.10;;;;;;4934036;29;20042;-86
2023/08/24 09:28:57;;;;;;;9.10;5.82;;;28.00;80.80;;;;;;4932492;29;20032;-82
2023/08/24 09:31:35;;;;;;;10.43;5.70;;;28.10;80.40;;;;;;4935667;29;20773;-82
2023/08/24 09:34:01;;;;;;;7.03;5.60;;;28.00;79.20;;;;;;4921423;29;20026;-83
2023/08/24 09:36:26;;;;;;;13.20;6.82;;;28.20;79.10;;;;;;4939728;29;20467;-82
2023/08/24 09:38:55;;;;;;;10.32;6.30;;;28.30;78.50;;;;;;4934366;29;20075;-82
2023/08/24 09:41:23;;;;;;;12.45;6.70;;;28.40;78.10;;;;;;4937358;29;20527;-82
2023/08/24 09:43:51;;;;;;;19.10;6.47;;;28.50;77.60;;;;;;4932382;29;20040;-83
2023/08/24 09:46:22;;;;;;;9.05;5.32;;;28.60;78.70;;;;;;4929249;29;20114;-82
2023/08/24 09:48:53;;;;;;;11.75;6.38;;;28.80;78.30;;;;;;4935958;28;20102;-86
2023/08/24 09:51:20;;;;;;;9.07;5.45;;;28.70;76.50;;;;;;4937649;29;20020;-86
2023/08/24 09:53:46;;;;;;;252.63;130.20;;;28.50;76.60;;;;;;4937957;28;20122;-84
2023/08/24 09:56:14;;;;;;;10.10;5.68;;;28.50;77.50;;;;;;4931890;29;20065;-85
2023/08/24 09:58:39;;;;;;;9.80;5.20;;;28.30;76.60;;;;;;4929254;29;20028;-85
2023/08/24 10:01:06;;;;;;;12.35;5.88;;;28.40;80.50;;;;;;4932267;29;20550;-85
2023/08/24 10:03:34;;;;;;;7.10;5.15;;;28.60;78.10;;;;;;4934386;29;20047;-84
2023/08/24 10:06:01;;;;;;;7.72;5.85;;;28.70;78.90;;;;;;4929315;29;20020;-83
2023/08/24 10:08:33;;;;;;;8.68;5.85;;;28.80;78.20;;;;;;4929039;29;20235;-85
2023/08/24 10:10:59;;;;;;;7.43;5.10;;;28.90;76.40;;;;;;4934281;29;20120;-84
2023/08/24 10:13:53;;;;;;;11.50;5.72;;;29.20;76.80;;;;;;4938377;29;20456;-85
2023/08/24 10:16:19;;;;;;;6.93;5.63;;;29.30;77.20;;;;;;4936859;29;20384;-85
2023/08/24 10:18:45;;;;;;;8.43;5.85;;;29.50;75.30;;;;;;4938888;28;20644;-84
2023/08/24 10:21:11;;;;;;;9.57;4.88;;;29.50;73.60;;;;;;4941776;29;20497;-85
2023/08/24 10:23:38;;;;;;;8.80;5.60;;;29.40;73.90;;;;;;4931589;29;20036;-85
2023/08/24 10:26:07;;;;;;;7.18;5.03;;;29.50;71.90;;;;;;4938252;29;20090;-85
2023/08/24 10:28:33;;;;;;;8.93;5.20;;;29.60;72.70;;;;;;4931139;29;20075;-84
2023/08/24 10:31:02;;;;;;;7.57;5.15;;;29.40;73.90;;;;;;4932120;29;20437;-85
2023/08/24 10:33:34;;;;;;;13.20;5.80;;;29.30;75.20;;;;;;4964007;28;20503;-85
2023/08/24 10:35:59;;;;;;;220.00;121.82;;;29.30;74.90;;;;;;4935762;29;20024;-82
2023/08/24 10:38:29;;;;;;;9.18;5.60;;;29.20;75.60;;;;;;4933656;29;20028;-84
2023/08/24 10:41:06;;;;;;;12.65;4.90;;;29.20;75.80;;;;;;4919153;29;20075;-85
2023/08/24 10:43:40;;;;;;;7.32;5.63;;;29.20;76.90;;;;;;4933089;28;20483;-83
2023/08/24 10:46:18;;;;;;;7.70;5.40;;;29.00;77.60;;;;;;4932996;29;20023;-85
2023/08/24 10:48:49;;;;;;;9.70;5.25;;;29.10;78.60;;;;;;4934691;29;20111;-84
2023/08/24 10:51:21;;;;;;;10.15;6.70;;;29.20;76.80;;;;;;4936506;29;20027;-85
2023/08/24 10:53:52;;;;;;;7.45;5.70;;;28.90;76.30;;;;;;4935996;29;20032;-82
2023/08/24 10:56:19;;;;;;;17.63;5.32;;;28.90;77.60;;;;;;4929597;29;20118;-82
2023/08/24 10:58:46;;;;;;;9.77;5.97;;;28.80;77.30;;;;;;4933239;29;20106;-83
2023/08/24 11:01:18;;;;;;;6.88;5.82;;;28.80;76.70;;;;;;4946430;28;20028;-83
2023/08/24 11:03:59;;;;;;;16.48;5.70;;;28.80;77.50;;;;;;4944454;29;20543;-83
2023/08/24 11:06:28;;;;;;;12.88;5.47;;;28.80;78.90;;;;;;4934523;29;20091;-84
2023/08/24 11:09:13;;;;;;;12.30;6.07;;;28.80;78.10;;;;;;4932909;29;20039;-84
2023/08/24 11:11:40;;;;;;;9.18;5.90;;;28.90;78.50;;;;;;4920320;29;20035;-85
2023/08/24 11:14:22;;;;;;;8.38;5.28;;;28.70;78.50;;;;;;4934276;28;20049;-85
2023/08/24 11:16:48;;;;;;;9.60;6.20;;;28.60;78.80;;;;;;4933993;29;20036;-85
2023/08/24 11:19:15;;;;;;;9.68;4.80;;;28.50;76.10;;;;;;4934528;29;20028;-85
2023/08/24 11:21:45;;;;;;;8.75;5.15;;;28.50;76.40;;;;;;4932318;29;20049;-85
2023/08/24 11:24:16;;;;;;;11.00;5.20;;;28.40;76.80;;;;;;4938711;29;20024;-84
2023/08/24 11:26:49;;;;;;;10.57;5.65;;;28.40;76.70;;;;;;4935294;29;20031;-85
2023/08/24 11:29:18;;;;;;;6.82;4.95;;;28.30;77.00;;;;;;4932733;29;20032;-84
2023/08/24 11:31:44;;;;;;;8.13;4.95;;;28.30;77.00;;;;;;4931164;29;20071;-84
2023/08/24 11:34:11;;;;;;;7.38;5.40;;;28.30;77.00;;;;;;4935509;28;20058;-84
2023/08/24 11:37:03;;;;;;;9.63;5.13;;;28.20;77.80;;;;;;4932196;29;20051;-84
2023/08/24 11:39:32;;;;;;;7.03;5.23;;;28.20;78.10;;;;;;4931183;29;20496;-84
2023/08/24 11:42:04;;;;;;;7.78;5.28;;;28.10;77.90;;;;;;4936091;29;20547;-85
2023/08/24 11:44:47;;;;;;;8.55;5.28;;;27.90;78.70;;;;;;4934784;29;20020;-85
2023/08/24 11:47:13;;;;;;;6.05;5.45;;;27.80;79.60;;;;;;4938892;29;20444;-84
2023/08/24 11:49:38;;;;;;;5.65;5.07;;;27.70;79.40;;;;;;4932734;29;20149;-83
2023/08/24 11:52:04;;;;;;;8.60;5.05;;;27.70;80.10;;;;;;4934633;28;20181;-82
2023/08/24 11:54:32;;;;;;;7.63;5.40;;;27.70;80.40;;;;;;4933707;28;20662;-84
2023/08/24 11:56:58;;;;;;;4.88;4.47;;;27.70;80.30;;;;;;4934778;29;20051;-82
2023/08/24 11:59:25;;;;;;;7.10;4.93;;;27.70;80.30;;;;;;4929046;29;20476;-83
2023/08/24 12:01:52;;;;;;;7.70;4.90;;;27.80;81.40;;;;;;4931635;29;20016;-83
2023/08/24 12:04:18;;;;;;;9.32;5.03;;;27.80;81.30;;;;;;4930980;28;20023;-84
2023/08/24 12:06:44;;;;;;;6.95;5.05;;;28.00;82.30;;;;;;4938733;29;20023;-84
2023/08/24 12:09:10;;;;;;;11.05;5.18;;;28.20;81.00;;;;;;4936519;29;20032;-83
2023/08/24 12:11:37;;;;;;;9.18;4.78;;;28.30;80.30;;;;;;4955407;29;20023;-82
2023/08/24 12:14:03;;;;;;;4.72;4.32;;;28.30;79.30;;;;;;4954050;29;20108;-82
2023/08/24 12:16:32;;;;;;;7.53;4.30;;;28.20;78.80;;;;;;4944147;28;20129;-84
2023/08/24 12:19:00;;;;;;;10.30;4.30;;;28.10;79.20;;;;;;4936010;29;20127;-85
2023/08/24 12:21:26;;;;;;;5.72;4.25;;;28.20;77.80;;;;;;4933164;29;20043;-83
2023/08/24 12:23:59;;;;;;;9.50;4.47;;;28.40;77.40;;;;;;4935702;29;20088;-81
2023/08/24 12:26:25;;;;;;;;;;;28.40;76.60;;;;;;4931707;29;20517;-83
2023/08/24 12:28:54;;;;;;;6.00;4.57;;;28.40;76.90;;;;;;4928255;29;20011;-82
2023/08/24 12:31:20;;;;;;;8.60;4.95;;;28.30;77.10;;;;;;4935970;29;20405;-86
2023/08/24 12:33:59;;;;;;;8.27;5.65;;;28.20;77.10;;;;;;4933738;29;20091;-85
2023/08/24 12:36:25;;;;;;;8.98;4.68;;;28.30;77.10;;;;;;4923471;29;20058;-85